Airport View

Enter AWOS ICAO identifier for current METAR.

ex. KFNL

KOIN 080615Z AUTO 22005KT 10SM CLR 20/20 A2995 RMK AO1 T02030197

8 Aug 2020 06:15

Frequency: 119.225

Phone: 785-475-2587

Other Area AWOS: KMCK - KNRN - KCBK - KIML

TAF KMCK 080554Z 0806/0906 21007KT P6SM SKC TEMPO 0811/0812 5SM BR FM081200 VRB04KT 5SM BR SKC FM081300 VRB04KT P6SM SKC FM082000 12010KT P6SM SCT250